createdAt,value
2022-08-20T00:01:43.455Z,8.46
2022-08-20T00:03:07.693Z,11.09
2022-08-20T00:04:28.862Z,8.43
2022-08-20T00:05:51.757Z,9.82
2022-08-20T00:07:15.185Z,9.13
2022-08-20T00:08:36.915Z,10.56
2022-08-20T00:09:58.319Z,8.15
2022-08-20T00:11:22.984Z,9.01
2022-08-20T00:12:46.357Z,8.24
2022-08-20T00:14:07.425Z,8.49
2022-08-20T00:15:31.926Z,8.33
2022-08-20T00:16:53.314Z,10.95
2022-08-20T00:18:14.468Z,8.68
2022-08-20T00:19:36.580Z,9.62
2022-08-20T00:20:57.979Z,7.66
2022-08-20T00:22:19.102Z,7.43
2022-08-20T00:23:42.122Z,8.17
2022-08-20T00:25:07.587Z,8.94
2022-08-20T00:26:29.813Z,10.44
2022-08-20T00:27:51.284Z,8.28
2022-08-20T00:29:12.564Z,7.53
2022-08-20T00:31:47.620Z,11.51
2022-08-20T00:33:11.645Z,8.86
2022-08-20T00:34:33.159Z,9.78
2022-08-20T00:35:55.232Z,9.56
2022-08-20T00:37:16.861Z,9.51
2022-08-20T00:38:39.326Z,10.07
2022-08-20T00:40:00.549Z,6.80
2022-08-20T00:41:24.326Z,6.68
2022-08-20T00:42:49.065Z,7.96
2022-08-20T00:44:19.127Z,11.11
2022-08-20T00:45:40.411Z,9.60
2022-08-20T00:47:02.169Z,14.43
2022-08-20T00:48:25.021Z,8.91
2022-08-20T00:49:46.493Z,8.41
2022-08-20T00:51:13.953Z,9.06
2022-08-20T00:52:35.424Z,11.34
2022-08-20T00:55:10.353Z,8.24
2022-08-20T00:56:32.245Z,9.73
2022-08-20T00:58:01.475Z,9.60
2022-08-20T00:59:21.135Z,8.58
2022-08-20T01:00:45.107Z,9.28
2022-08-20T01:02:09.549Z,10.62
2022-08-20T01:03:31.008Z,10.14
2022-08-20T01:04:52.337Z,8.89
2022-08-20T01:06:13.936Z,9.94
2022-08-20T01:07:35.218Z,9.17
2022-08-20T01:08:56.539Z,10.17
2022-08-20T01:10:22.532Z,7.81
2022-08-20T01:11:44.019Z,8.17
2022-08-20T01:14:18.705Z,11.25
2022-08-20T01:15:43.601Z,9.85
2022-08-20T01:17:06.921Z,8.48
2022-08-20T01:18:27.960Z,9.74
2022-08-20T01:19:58.821Z,7.45
2022-08-20T01:21:20.425Z,12.85
2022-08-20T01:22:57.410Z,10.83
2022-08-20T01:24:27.486Z,9.66
2022-08-20T01:25:51.286Z,7.87
2022-08-20T01:27:12.711Z,8.44
2022-08-20T01:28:46.055Z,8.71
2022-08-20T01:31:22.222Z,11.61
2022-08-20T01:32:43.549Z,10.07
2022-08-20T01:34:08.606Z,10.07
2022-08-20T01:35:33.110Z,10.94
2022-08-20T01:36:56.531Z,10.74
2022-08-20T01:38:18.227Z,8.90
2022-08-20T01:39:39.428Z,12.11
2022-08-20T01:41:28.570Z,9.42
2022-08-20T01:42:53.983Z,8.92
2022-08-20T01:44:16.712Z,9.04
2022-08-20T01:45:38.003Z,8.24
2022-08-20T01:47:17.113Z,9.31
2022-08-20T01:48:39.482Z,13.22
2022-08-20T01:51:17.956Z,10.14
2022-08-20T01:53:03.685Z,8.77
2022-08-20T01:54:24.695Z,9.83
2022-08-20T01:55:46.623Z,10.13
2022-08-20T01:57:13.443Z,7.50
2022-08-20T01:58:36.378Z,9.92
2022-08-20T01:59:57.804Z,7.78
2022-08-20T02:02:33.847Z,10.21
2022-08-20T02:03:55.536Z,9.36
2022-08-20T02:05:17.629Z,10.63
2022-08-20T02:06:56.234Z,10.64
2022-08-20T02:08:07.762Z,7.38
2022-08-20T02:09:37.293Z,11.59
2022-08-20T02:10:59.718Z,9.03
2022-08-20T02:12:21.136Z,8.93
2022-08-20T02:13:42.405Z,9.93
2022-08-20T02:15:07.221Z,10.87
2022-08-20T02:16:31.182Z,9.86
2022-08-20T02:17:53.105Z,10.02
2022-08-20T02:19:18.267Z,12.06
2022-08-20T02:20:42.215Z,10.01
2022-08-20T02:23:26.665Z,10.69
2022-08-20T02:24:48.325Z,10.28
2022-08-20T02:26:11.771Z,9.54
2022-08-20T02:27:33.220Z,10.47
2022-08-20T02:28:54.385Z,9.51
2022-08-20T02:31:36.991Z,8.69
2022-08-20T02:33:01.398Z,8.57
2022-08-20T02:34:24.514Z,12.41
2022-08-20T02:35:47.160Z,10.58
2022-08-20T02:38:29.550Z,10.00
2022-08-20T02:39:51.551Z,9.19
2022-08-20T02:41:14.229Z,10.43
2022-08-20T02:42:35.685Z,11.18
2022-08-20T02:43:57.287Z,9.44
2022-08-20T02:45:19.134Z,9.93
2022-08-20T02:46:42.326Z,11.04
2022-08-20T02:48:03.963Z,7.24
2022-08-20T02:49:25.707Z,12.05
2022-08-20T02:50:49.684Z,9.87
2022-08-20T02:52:11.155Z,10.16
2022-08-20T02:53:34.244Z,11.13
2022-08-20T02:54:56.050Z,10.68
2022-08-20T02:56:19.569Z,26.98
2022-08-20T02:57:41.126Z,32.51
2022-08-20T02:59:02.619Z,20.39
2022-08-20T03:00:28.063Z,10.87
2022-08-20T03:01:59.409Z,9.54
2022-08-20T03:03:14.671Z,12.14
2022-08-20T03:04:36.419Z,7.54
2022-08-20T03:05:57.810Z,13.12
2022-08-20T03:07:19.014Z,7.24
2022-08-20T03:08:40.726Z,11.94
2022-08-20T03:10:02.926Z,8.43
2022-08-20T03:11:24.070Z,9.79
2022-08-20T03:12:45.606Z,10.08
2022-08-20T03:14:10.896Z,10.67
2022-08-20T03:15:33.214Z,11.03
2022-08-20T03:16:54.976Z,10.26
2022-08-20T03:18:16.513Z,10.93
2022-08-20T03:19:38.032Z,9.87
2022-08-20T03:20:59.377Z,11.51
2022-08-20T03:22:20.502Z,8.92
2022-08-20T03:23:42.396Z,12.97
2022-08-20T03:25:04.653Z,9.23
2022-08-20T03:27:45.518Z,11.54
2022-08-20T03:29:07.339Z,13.77
2022-08-20T03:30:30.218Z,10.98
2022-08-20T03:31:51.642Z,16.18
2022-08-20T03:33:13.338Z,29.27
2022-08-20T03:34:34.967Z,15.04
2022-08-20T03:35:57.889Z,13.51
2022-08-20T03:37:19.374Z,14.86
2022-08-20T03:38:41.418Z,11.67
2022-08-20T03:40:04.981Z,9.48
2022-08-20T03:41:28.072Z,12.61
2022-08-20T03:42:49.702Z,14.53
2022-08-20T03:44:13.622Z,18.87
2022-08-20T03:46:55.559Z,16.57
2022-08-20T03:48:18.036Z,12.31
2022-08-20T03:49:40.619Z,10.23
2022-08-20T03:51:02.930Z,14.14
2022-08-20T03:52:25.321Z,13.59
2022-08-20T03:53:46.740Z,16.49
2022-08-20T03:55:08.754Z,18.71
2022-08-20T03:56:30.865Z,12.21
2022-08-20T03:59:06.852Z,11.71
2022-08-20T04:00:45.486Z,12.82
2022-08-20T04:02:07.478Z,16.12
2022-08-20T04:03:29.532Z,17.48
2022-08-20T04:04:52.165Z,13.75
2022-08-20T04:06:17.407Z,11.10
2022-08-20T04:07:39.123Z,14.16
2022-08-20T04:09:00.783Z,16.44
2022-08-20T04:10:22.594Z,22.41
2022-08-20T04:11:46.579Z,17.53
2022-08-20T04:13:08.037Z,16.36
2022-08-20T04:14:31.291Z,11.08
2022-08-20T04:15:55.519Z,15.97
2022-08-20T04:17:20.668Z,16.72
2022-08-20T04:19:01.659Z,11.21
2022-08-20T04:20:14.532Z,18.52
2022-08-20T04:21:36.018Z,11.74
2022-08-20T04:22:59.718Z,11.07
2022-08-20T04:25:46.540Z,11.24
2022-08-20T04:27:27.121Z,13.34
2022-08-20T04:28:49.012Z,13.23
2022-08-20T04:30:16.540Z,12.54
2022-08-20T04:31:39.009Z,10.59
2022-08-20T04:33:01.108Z,12.54
2022-08-20T04:34:22.385Z,8.78
2022-08-20T04:35:43.824Z,9.33
2022-08-20T04:37:05.549Z,10.61
2022-08-20T04:38:50.219Z,10.87
2022-08-20T04:39:56.454Z,10.04
2022-08-20T04:41:24.189Z,8.53
2022-08-20T04:42:47.571Z,10.96
2022-08-20T04:44:10.027Z,10.64
2022-08-20T04:45:35.159Z,12.19
2022-08-20T04:46:58.420Z,14.03
2022-08-20T04:49:41.263Z,7.67
2022-08-20T04:51:02.823Z,10.83
2022-08-20T04:54:16.937Z,12.56
2022-08-20T04:56:00.998Z,10.66
2022-08-20T04:59:08.189Z,10.55
2022-08-20T05:33:31.046Z,9.38
2022-08-20T05:36:31.173Z,12.49
2022-08-20T05:37:58.245Z,11.93
2022-08-20T05:41:06.556Z,11.89
2022-08-20T05:42:31.059Z,14.65
2022-08-20T05:43:55.253Z,14.52
2022-08-20T05:47:08.671Z,54.12
2022-08-20T05:49:54.035Z,123.41
2022-08-20T05:51:15.901Z,53.01
2022-08-20T05:52:40.009Z,126.46
2022-08-20T05:54:02.405Z,77.24
2022-08-20T05:58:39.075Z,15.17
2022-08-20T06:00:02.563Z,18.89
2022-08-20T06:01:28.167Z,18.16
2022-08-20T06:03:04.231Z,18.07
2022-08-20T06:06:45.813Z,18.58
2022-08-20T06:08:07.407Z,17.59
2022-08-20T06:09:31.600Z,25.15
2022-08-20T06:12:46.883Z,18.50
2022-08-20T06:14:08.947Z,22.18
2022-08-20T06:20:57.593Z,14.97
2022-08-20T06:33:24.141Z,14.45
2022-08-20T06:36:53.208Z,15.18
2022-08-20T08:49:50.576Z,14.50
2022-08-20T08:53:21.566Z,14.49
2022-08-20T08:54:47.347Z,20.70
2022-08-20T09:53:43.912Z,14.78
2022-08-20T09:55:11.032Z,10.76
2022-08-20T11:38:50.430Z,9.08
2022-08-20T12:22:35.411Z,8.55
2022-08-20T12:35:05.803Z,9.36
2022-08-20T12:36:28.675Z,14.19
2022-08-20T12:41:21.231Z,9.64
2022-08-20T12:43:05.879Z,10.43
2022-08-20T12:44:40.860Z,8.73
2022-08-20T12:46:14.507Z,9.98
2022-08-20T12:49:41.621Z,7.14
2022-08-20T12:55:28.295Z,11.28
2022-08-20T13:24:09.451Z,12.13
2022-08-20T13:39:48.588Z,18.59
2022-08-20T13:46:59.994Z,14.11
2022-08-20T13:50:21.104Z,9.20
2022-08-20T14:15:40.166Z,12.27
2022-08-20T14:17:24.930Z,9.82
2022-08-20T14:22:21.487Z,8.27
2022-08-20T14:23:48.453Z,13.87
2022-08-20T14:29:05.834Z,14.79
2022-08-20T14:30:42.523Z,11.60
2022-08-20T14:37:28.561Z,9.38
2022-08-20T14:38:50.852Z,10.21
2022-08-20T14:43:42.940Z,8.84
2022-08-20T14:48:54.556Z,12.28
2022-08-20T14:52:56.967Z,10.41
2022-08-20T15:03:24.505Z,8.41
2022-08-20T15:04:54.142Z,7.42
2022-08-20T15:11:35.275Z,5.43
2022-08-20T15:13:09.203Z,14.62
2022-08-20T15:14:42.710Z,10.70
2022-08-20T15:17:53.213Z,7.87
2022-08-20T15:19:20.032Z,8.71
2022-08-20T15:20:50.839Z,7.43
2022-08-20T15:27:55.411Z,12.52
2022-08-20T15:31:13.067Z,6.17
2022-08-20T15:32:38.549Z,9.60
2022-08-20T16:04:54.481Z,6.99
2022-08-20T16:20:49.229Z,8.01
2022-08-20T16:22:16.837Z,11.12
2022-08-20T16:23:41.396Z,5.87
2022-08-20T16:25:15.232Z,8.45
2022-08-20T16:50:17.408Z,7.74
2022-08-20T17:04:13.595Z,7.43
2022-08-20T17:05:54.244Z,7.60
2022-08-20T17:09:37.502Z,13.22
2022-08-20T17:11:09.570Z,9.89
2022-08-20T17:12:49.126Z,8.44
2022-08-20T17:14:30.224Z,13.03
2022-08-20T17:17:37.898Z,12.95
2022-08-20T18:52:48.499Z,8.55
2022-08-20T18:54:13.988Z,10.20
2022-08-20T18:55:38.289Z,10.84
2022-08-20T18:58:49.721Z,7.36
2022-08-20T19:00:17.244Z,10.44
2022-08-20T19:01:38.490Z,8.50
2022-08-20T19:03:09.843Z,8.62
2022-08-20T19:04:31.483Z,10.06
2022-08-20T19:06:12.201Z,12.63
2022-08-20T19:07:47.847Z,11.77
2022-08-20T19:09:37.269Z,8.39
2022-08-20T19:11:31.739Z,6.48
2022-08-20T19:13:29.872Z,7.28
2022-08-20T19:15:02.749Z,9.06
2022-08-20T19:16:44.459Z,8.76
2022-08-20T19:18:20.048Z,9.38
2022-08-20T19:19:42.160Z,10.62
2022-08-20T19:21:03.841Z,10.65
2022-08-20T19:22:25.192Z,9.17
2022-08-20T19:23:48.487Z,7.85
2022-08-20T19:25:32.587Z,11.49
2022-08-20T19:28:24.328Z,9.33
2022-08-20T19:29:46.985Z,9.16
2022-08-20T19:31:15.603Z,7.93
2022-08-20T19:32:41.178Z,8.75
2022-08-20T19:34:20.449Z,9.62
2022-08-20T19:35:40.550Z,7.48
2022-08-20T19:37:09.075Z,7.30
2022-08-20T19:38:28.818Z,7.53
2022-08-20T19:39:51.379Z,10.66
2022-08-20T19:41:30.938Z,7.65
2022-08-20T19:42:49.616Z,7.47
2022-08-20T19:44:12.755Z,8.76
2022-08-20T19:45:41.128Z,10.36
2022-08-20T19:47:03.218Z,8.46
2022-08-20T19:51:45.869Z,9.15
2022-08-20T19:54:30.155Z,7.92
2022-08-20T19:56:12.379Z,7.16
2022-08-20T19:57:33.582Z,5.30
2022-08-20T19:59:02.713Z,8.46
2022-08-20T20:00:28.164Z,7.32
2022-08-20T20:01:55.216Z,6.77
2022-08-20T20:03:22.321Z,7.21
2022-08-20T20:04:55.709Z,10.43
2022-08-20T20:06:16.984Z,8.89
2022-08-20T20:09:01.637Z,8.55
2022-08-20T20:11:49.239Z,6.93
2022-08-20T20:14:53.962Z,8.60
2022-08-20T20:16:19.527Z,7.02
2022-08-20T20:17:41.317Z,8.94
2022-08-20T20:19:25.329Z,7.19
2022-08-20T20:21:49.209Z,10.90
2022-08-20T20:23:18.424Z,6.44
2022-08-20T20:24:45.092Z,10.14
2022-08-20T20:26:11.586Z,7.03
2022-08-20T20:27:33.709Z,8.98
2022-08-20T20:29:10.891Z,8.11
2022-08-20T20:30:33.219Z,9.31
2022-08-20T20:31:57.233Z,11.34
2022-08-20T20:33:27.875Z,6.64
2022-08-20T20:36:17.871Z,7.97
2022-08-20T20:37:49.065Z,10.35
2022-08-20T20:39:11.211Z,7.56
2022-08-20T20:40:46.474Z,11.06
2022-08-20T20:42:12.427Z,10.86
2022-08-20T20:43:38.223Z,10.34
2022-08-20T20:44:59.788Z,8.69
2022-08-20T20:46:25.121Z,9.21
2022-08-20T20:47:50.798Z,8.28
2022-08-20T20:49:29.966Z,7.54
2022-08-20T20:50:52.749Z,9.43
2022-08-20T20:52:35.781Z,7.23
2022-08-20T20:55:27.271Z,7.82
2022-08-20T20:57:04.125Z,10.06
2022-08-20T20:58:26.881Z,10.05
2022-08-20T20:59:51.285Z,10.13
2022-08-20T21:01:14.159Z,12.03
2022-08-20T21:03:58.127Z,8.65
2022-08-20T21:05:25.295Z,9.66
2022-08-20T21:06:47.405Z,9.06
2022-08-20T21:08:08.982Z,11.89
2022-08-20T21:09:30.226Z,10.34
2022-08-20T21:10:52.725Z,9.36
2022-08-20T21:12:14.526Z,11.88
2022-08-20T21:13:36.189Z,13.91
2022-08-20T21:16:22.185Z,8.67
2022-08-20T21:17:44.242Z,10.61
2022-08-20T21:19:07.681Z,12.82
2022-08-20T21:20:31.409Z,9.02
2022-08-20T21:21:55.186Z,8.22
2022-08-20T21:23:17.221Z,8.45
2022-08-20T21:24:38.576Z,8.81
2022-08-20T21:26:01.676Z,9.58
2022-08-20T21:27:25.040Z,11.55
2022-08-20T21:28:47.182Z,10.47
2022-08-20T21:30:09.753Z,7.76
2022-08-20T21:31:33.786Z,9.58
2022-08-20T21:32:57.366Z,7.30
2022-08-20T21:34:19.056Z,9.49
2022-08-20T21:35:40.245Z,8.12
2022-08-20T21:37:01.958Z,8.64
2022-08-20T21:38:23.181Z,7.32
2022-08-20T21:39:44.830Z,6.61
2022-08-20T21:41:06.296Z,8.18
2022-08-20T21:42:29.847Z,7.53
2022-08-20T21:43:51.912Z,7.36
2022-08-20T21:45:18.770Z,10.84
2022-08-20T21:46:41.291Z,10.54
2022-08-20T21:48:03.225Z,9.13
2022-08-20T21:49:25.162Z,9.02
2022-08-20T21:50:50.180Z,7.09
2022-08-20T21:52:11.706Z,7.63
2022-08-20T21:53:33.448Z,8.52
2022-08-20T21:54:58.198Z,9.68
2022-08-20T21:56:24.337Z,8.84
2022-08-20T21:57:47.282Z,10.40
2022-08-20T21:59:09.947Z,12.74
2022-08-20T22:00:54.209Z,9.33
2022-08-20T22:02:16.904Z,9.56
2022-08-20T22:03:41.078Z,10.08
2022-08-20T22:05:05.614Z,11.53
2022-08-20T22:06:27.073Z,14.10
2022-08-20T22:07:48.989Z,20.19
2022-08-20T22:09:12.164Z,18.90
2022-08-20T22:10:33.739Z,16.17
2022-08-20T22:11:57.371Z,50.57
2022-08-20T22:13:21.850Z,22.53
2022-08-20T22:16:15.262Z,8.22
2022-08-20T22:17:39.607Z,16.32
2022-08-20T22:19:00.785Z,12.57
2022-08-20T22:20:23.539Z,9.67
2022-08-20T22:21:45.482Z,12.29
2022-08-20T22:23:10.117Z,9.52
2022-08-20T22:24:31.610Z,11.88
2022-08-20T22:25:54.398Z,10.08
2022-08-20T22:27:17.667Z,7.46
2022-08-20T22:28:38.963Z,7.47
2022-08-20T22:30:01.242Z,6.36
2022-08-20T22:31:27.094Z,6.28
2022-08-20T22:32:52.080Z,6.41
2022-08-20T22:34:14.174Z,8.44
2022-08-20T22:35:35.605Z,6.56
2022-08-20T22:37:00.338Z,12.26
2022-08-20T22:38:22.447Z,7.08
2022-08-20T22:39:43.808Z,6.20
2022-08-20T22:41:09.566Z,8.57
2022-08-20T22:42:30.112Z,6.77
2022-08-20T22:45:15.342Z,8.58
2022-08-20T22:46:41.463Z,7.39
2022-08-20T22:48:02.349Z,8.02
2022-08-20T22:49:26.313Z,9.71
2022-08-20T22:50:50.230Z,6.76
2022-08-20T22:52:12.199Z,6.36
2022-08-20T22:53:33.641Z,9.18
2022-08-20T22:54:55.172Z,5.50
2022-08-20T22:57:41.923Z,6.56
2022-08-20T22:59:03.733Z,11.58
2022-08-20T23:00:27.140Z,6.51
2022-08-20T23:01:48.952Z,8.96
2022-08-20T23:03:11.814Z,8.83
2022-08-20T23:04:33.744Z,6.24
2022-08-20T23:05:56.511Z,4.23
2022-08-20T23:07:19.306Z,6.95
2022-08-20T23:08:43.957Z,7.25
2022-08-20T23:10:05.780Z,7.06
2022-08-20T23:11:27.924Z,5.79
2022-08-20T23:14:00.765Z,8.12
2022-08-20T23:15:22.715Z,5.93
2022-08-20T23:16:49.273Z,7.72
2022-08-20T23:19:28.662Z,7.12
2022-08-20T23:20:53.499Z,6.92
2022-08-20T23:22:15.053Z,5.03
2022-08-20T23:23:36.998Z,10.82
2022-08-20T23:25:00.525Z,6.82
2022-08-20T23:26:22.887Z,9.25
2022-08-20T23:27:48.711Z,8.48
2022-08-20T23:29:10.950Z,5.81
2022-08-20T23:30:39.111Z,6.66
2022-08-20T23:32:05.358Z,5.51
2022-08-20T23:33:29.414Z,8.87
2022-08-20T23:34:51.522Z,5.88
2022-08-20T23:36:13.281Z,6.29
2022-08-20T23:37:39.448Z,6.58
2022-08-20T23:39:01.036Z,7.81
2022-08-20T23:40:28.144Z,5.99
2022-08-20T23:41:50.196Z,5.89
2022-08-20T23:43:11.240Z,5.89
2022-08-20T23:44:32.501Z,5.83
2022-08-20T23:45:56.577Z,5.08
2022-08-20T23:47:19.287Z,6.53
2022-08-20T23:48:40.462Z,6.98
2022-08-20T23:50:02.777Z,5.49
2022-08-20T23:51:24.221Z,5.49
2022-08-20T23:52:45.319Z,5.77
2022-08-20T23:54:06.753Z,5.04
2022-08-20T23:55:28.377Z,6.58
2022-08-20T23:56:50.393Z,4.83
2022-08-20T23:58:11.920Z,5.29
2022-08-20T23:59:35.253Z,6.28
